Athens Ben Epps Airport
KAHN : now visible

Airfield :











YOU CAN JOIN US ON...

 
LOGIN :

Register | Disclaimer

   EN    FR    IT 

 









Legend :    VFR   Marginal VFR   IFR   Intensive IFR   Very Intensive IFR
Visi :
Ceiling :
>= 8 km
>= 3000ft
5 to 8 km
1000 to 3000 ft
1500m to 5 km
500 to 1000 ft
800 to 1500m
200 to 500 ft
< 800m
< 200 ft
Symbols :   Thunderstorms  Fog  Heavy snow  Heavy precipitations  Wind > 20 kt







- Airport Elevation : 808 ft
- IATA code : AHN


KAHN - Athens Ben Epps

CURRENT METAR :
  • 160151Z AUTO 14003KT 10SM CLR 23/16 A3009 RMK AO2 SLP184 T02330161

EXPIRED METARs :
  • 160051Z AUTO 00000KT 10SM CLR 25/16 A3009 RMK AO2 SLP182 T02500156
  • 152351Z 17004KT 10SM CLR 27/16 A3008 RMK AO2 SLP179 T02720156 10300 20272 56013

TAF KAHN
Valid from the 16 at 00:00 until the 17 at 00:00 UTC


152323Z 1600/1624 18004KT P6SM SKC
FM160100 15004KT P6SM FEW200
FM161300 24005KT P6SM FEW250
FM161500 25006KT P6SM FEW035
FM162000 21005KT P6SM SCT050
KZTL FIR / North America



MET'MAP, your aeronautical weather chart ! - Copyright ORBIFLY December 2007 - Disclaimer

ORBIFLY MET'MAP TEAM :

Programming & Development : Alexandra Zaïnal
Concept & Development : Baudouin d'Aumeries
Co-Development & Prog : Marc-Olivier Méhu
Technical & hardware support : Manuel Goepfert

Contact : metmap@orbifly.com




SOURCES & CREDITS :

   NOAA       Earth
Advisory